map of AYQ home
AYQ - Airport
Location
City:  Yulara, Northern Territory, Australia
Near (Alt.):Uluru, Ayers Rock
Name:Ayers Rock Airport
Old (Alt.):Connellan Airport
ICAO:YAYE
IATA:AYQ

Details
Type:Airport (Aerodrome, Airfield)
Latitude:2511'10"S (-25.186110)
Longitude:13058'32"E (130.975556)
Datum:WGS 1984
Elevation:1626 ft (496 m)
Variation:3.94E (WMM2015v2 magnetic declination)
-0.03 annual change
Runways:1
Longest:8527 × 98 ft (2599 × 30 m), paved

Time
Time Zone:UTC+9:30
Local Time:

Weather
METAR:YAYE 041400Z AUTO 15014KT 9999 // NCD 34/11 Q1009

Related Locations
Nearby:
Farthest:TAPT: 11469 mi / 18458 km
Barbuda [Coco Point Lodge], AG

Find:

   beyond  
but within

Other Information
Maps:
NOTAMs:
Links:
Sources:

  
  • flag of Australia
  • flag of Northern Territory
  

Sectional Chart

Flight Planning
at skyvector.com

Satellite Image

Google Maps Satellite view

 

Copyright © 2004-2019 Karl L. Swartz. All rights reserved.
The Great Circle Mapper name and logo are trademarks of the Great Circle Mapper.
All other trademarks mentioned herein belong to their respective owners.
Please see credits for attibutions and further copyright information.

  Follow gcmap on Facebook Follow gcmap on Twitter GCmap on LinkedIn

hCard Microformat

Geo Microformat